sensor_id;sensor_type;location;lat;lon;timestamp;P1;durP1;ratioP1;P2;durP2;ratioP2
6661;SDS011;3367;48.714;8.994;2024-02-21T00:01:28;4.33;;;2.27;;
6661;SDS011;3367;48.714;8.994;2024-02-21T00:03:55;7.27;;;2.67;;
6661;SDS011;3367;48.714;8.994;2024-02-21T00:06:22;9.23;;;2.90;;
6661;SDS011;3367;48.714;8.994;2024-02-21T00:08:50;9.00;;;3.07;;
6661;SDS011;3367;48.714;8.994;2024-02-21T00:11:17;2.67;;;2.27;;
6661;SDS011;3367;48.714;8.994;2024-02-21T00:13:47;3.90;;;2.60;;
6661;SDS011;3367;48.714;8.994;2024-02-21T00:16:15;5.40;;;2.53;;
6661;SDS011;3367;48.714;8.994;2024-02-21T00:18:42;9.30;;;2.07;;
6661;SDS011;3367;48.714;8.994;2024-02-21T00:21:09;6.30;;;2.63;;
6661;SDS011;3367;48.714;8.994;2024-02-21T00:23:40;9.00;;;3.00;;
6661;SDS011;3367;48.714;8.994;2024-02-21T00:26:08;3.67;;;1.90;;
6661;SDS011;3367;48.714;8.994;2024-02-21T00:28:34;1.67;;;1.57;;
6661;SDS011;3367;48.714;8.994;2024-02-21T00:31:01;6.87;;;2.37;;
6661;SDS011;3367;48.714;8.994;2024-02-21T00:33:28;3.53;;;2.20;;
6661;SDS011;3367;48.714;8.994;2024-02-21T00:35:55;4.07;;;1.80;;
6661;SDS011;3367;48.714;8.994;2024-02-21T00:38:21;5.53;;;1.80;;
6661;SDS011;3367;48.714;8.994;2024-02-21T00:40:48;3.70;;;1.93;;
6661;SDS011;3367;48.714;8.994;2024-02-21T00:43:16;5.83;;;1.83;;
6661;SDS011;3367;48.714;8.994;2024-02-21T00:45:43;8.17;;;2.60;;
6661;SDS011;3367;48.714;8.994;2024-02-21T00:48:10;3.37;;;2.40;;
6661;SDS011;3367;48.714;8.994;2024-02-21T00:50:36;4.10;;;1.90;;
6661;SDS011;3367;48.714;8.994;2024-02-21T00:53:03;7.27;;;2.00;;
6661;SDS011;3367;48.714;8.994;2024-02-21T00:55:29;4.20;;;2.20;;
6661;SDS011;3367;48.714;8.994;2024-02-21T00:57:56;3.50;;;2.93;;
6661;SDS011;3367;48.714;8.994;2024-02-21T01:00:24;2.77;;;1.93;;
6661;SDS011;3367;48.714;8.994;2024-02-21T01:02:51;3.03;;;1.90;;
6661;SDS011;3367;48.714;8.994;2024-02-21T01:05:18;3.90;;;1.73;;
6661;SDS011;3367;48.714;8.994;2024-02-21T01:07:45;3.17;;;2.17;;
6661;SDS011;3367;48.714;8.994;2024-02-21T01:10:12;1.57;;;1.47;;
6661;SDS011;3367;48.714;8.994;2024-02-21T01:12:38;5.07;;;2.30;;
6661;SDS011;3367;48.714;8.994;2024-02-21T01:15:05;2.03;;;1.87;;
6661;SDS011;3367;48.714;8.994;2024-02-21T01:17:34;3.20;;;2.10;;
6661;SDS011;3367;48.714;8.994;2024-02-21T01:20:02;7.43;;;1.97;;
6661;SDS011;3367;48.714;8.994;2024-02-21T01:22:30;2.07;;;1.87;;
6661;SDS011;3367;48.714;8.994;2024-02-21T01:24:57;7.27;;;2.53;;
6661;SDS011;3367;48.714;8.994;2024-02-21T01:27:23;3.20;;;2.37;;
6661;SDS011;3367;48.714;8.994;2024-02-21T01:29:50;2.40;;;2.20;;
6661;SDS011;3367;48.714;8.994;2024-02-21T01:32:17;12.90;;;2.23;;
6661;SDS011;3367;48.714;8.994;2024-02-21T01:34:45;8.50;;;3.33;;
6661;SDS011;3367;48.714;8.994;2024-02-21T01:37:12;4.70;;;2.27;;
6661;SDS011;3367;48.714;8.994;2024-02-21T01:39:38;12.03;;;2.97;;
6661;SDS011;3367;48.714;8.994;2024-02-21T01:42:05;5.33;;;2.07;;
6661;SDS011;3367;48.714;8.994;2024-02-21T01:44:32;2.63;;;1.60;;
6661;SDS011;3367;48.714;8.994;2024-02-21T01:46:58;9.20;;;2.60;;
6661;SDS011;3367;48.714;8.994;2024-02-21T01:49:25;4.27;;;2.40;;
6661;SDS011;3367;48.714;8.994;2024-02-21T01:51:54;2.20;;;1.60;;
6661;SDS011;3367;48.714;8.994;2024-02-21T01:54:21;2.43;;;1.70;;
6661;SDS011;3367;48.714;8.994;2024-02-21T01:56:48;4.27;;;1.57;;
6661;SDS011;3367;48.714;8.994;2024-02-21T01:59:16;1.87;;;1.50;;
6661;SDS011;3367;48.714;8.994;2024-02-21T02:01:44;2.40;;;1.43;;
6661;SDS011;3367;48.714;8.994;2024-02-21T02:04:12;1.63;;;1.30;;
6661;SDS011;3367;48.714;8.994;2024-02-21T02:06:39;3.00;;;1.60;;
6661;SDS011;3367;48.714;8.994;2024-02-21T02:09:08;6.10;;;1.63;;
6661;SDS011;3367;48.714;8.994;2024-02-21T02:11:35;4.33;;;1.67;;
6661;SDS011;3367;48.714;8.994;2024-02-21T02:14:02;3.00;;;1.30;;
6661;SDS011;3367;48.714;8.994;2024-02-21T02:16:29;6.53;;;2.50;;
6661;SDS011;3367;48.714;8.994;2024-02-21T02:18:55;1.50;;;1.40;;
6661;SDS011;3367;48.714;8.994;2024-02-21T02:21:23;1.87;;;1.40;;
6661;SDS011;3367;48.714;8.994;2024-02-21T02:23:56;4.63;;;2.00;;
6661;SDS011;3367;48.714;8.994;2024-02-21T02:26:23;1.33;;;1.23;;
6661;SDS011;3367;48.714;8.994;2024-02-21T02:28:50;6.20;;;2.00;;
6661;SDS011;3367;48.714;8.994;2024-02-21T02:31:17;2.40;;;1.17;;
6661;SDS011;3367;48.714;8.994;2024-02-21T02:33:43;7.40;;;2.53;;
6661;SDS011;3367;48.714;8.994;2024-02-21T02:36:10;4.43;;;2.20;;
6661;SDS011;3367;48.714;8.994;2024-02-21T02:38:37;4.50;;;2.53;;
6661;SDS011;3367;48.714;8.994;2024-02-21T02:41:05;3.83;;;2.17;;
6661;SDS011;3367;48.714;8.994;2024-02-21T02:43:32;3.47;;;1.57;;
6661;SDS011;3367;48.714;8.994;2024-02-21T02:46:01;2.03;;;1.83;;
6661;SDS011;3367;48.714;8.994;2024-02-21T02:48:31;3.53;;;2.00;;
6661;SDS011;3367;48.714;8.994;2024-02-21T02:51:04;3.30;;;1.70;;
6661;SDS011;3367;48.714;8.994;2024-02-21T02:53:30;8.57;;;1.77;;
6661;SDS011;3367;48.714;8.994;2024-02-21T02:56:00;5.77;;;2.17;;
6661;SDS011;3367;48.714;8.994;2024-02-21T02:58:28;7.73;;;2.13;;
6661;SDS011;3367;48.714;8.994;2024-02-21T03:00:55;3.07;;;1.70;;
6661;SDS011;3367;48.714;8.994;2024-02-21T03:03:22;7.07;;;2.13;;
6661;SDS011;3367;48.714;8.994;2024-02-21T03:05:55;8.77;;;2.27;;
6661;SDS011;3367;48.714;8.994;2024-02-21T03:08:21;3.83;;;1.50;;
6661;SDS011;3367;48.714;8.994;2024-02-21T03:10:48;5.10;;;1.70;;
6661;SDS011;3367;48.714;8.994;2024-02-21T03:13:17;2.60;;;2.20;;
6661;SDS011;3367;48.714;8.994;2024-02-21T03:15:46;2.63;;;1.70;;
6661;SDS011;3367;48.714;8.994;2024-02-21T03:18:12;7.50;;;1.97;;
6661;SDS011;3367;48.714;8.994;2024-02-21T03:20:39;2.10;;;1.40;;
6661;SDS011;3367;48.714;8.994;2024-02-21T03:23:09;6.73;;;2.17;;
6661;SDS011;3367;48.714;8.994;2024-02-21T03:25:35;3.37;;;1.67;;
6661;SDS011;3367;48.714;8.994;2024-02-21T03:28:10;5.37;;;2.47;;
6661;SDS011;3367;48.714;8.994;2024-02-21T03:30:36;6.00;;;1.83;;
6661;SDS011;3367;48.714;8.994;2024-02-21T03:33:07;3.73;;;1.90;;
6661;SDS011;3367;48.714;8.994;2024-02-21T03:35:34;7.13;;;2.30;;
6661;SDS011;3367;48.714;8.994;2024-02-21T03:38:00;2.90;;;1.80;;
6661;SDS011;3367;48.714;8.994;2024-02-21T03:40:27;6.83;;;1.93;;
6661;SDS011;3367;48.714;8.994;2024-02-21T03:42:54;2.60;;;1.60;;
6661;SDS011;3367;48.714;8.994;2024-02-21T03:45:20;2.03;;;1.33;;
6661;SDS011;3367;48.714;8.994;2024-02-21T03:47:50;4.63;;;1.63;;
6661;SDS011;3367;48.714;8.994;2024-02-21T03:50:18;4.83;;;1.73;;
6661;SDS011;3367;48.714;8.994;2024-02-21T03:53:05;7.87;;;1.63;;
6661;SDS011;3367;48.714;8.994;2024-02-21T03:55:32;5.83;;;2.00;;
6661;SDS011;3367;48.714;8.994;2024-02-21T03:58:04;6.27;;;1.80;;
6661;SDS011;3367;48.714;8.994;2024-02-21T04:00:31;1.70;;;1.43;;
6661;SDS011;3367;48.714;8.994;2024-02-21T04:02:58;2.90;;;1.60;;
6661;SDS011;3367;48.714;8.994;2024-02-21T04:05:29;6.30;;;1.70;;
6661;SDS011;3367;48.714;8.994;2024-02-21T04:07:56;2.13;;;1.80;;
6661;SDS011;3367;48.714;8.994;2024-02-21T04:10:22;1.60;;;1.50;;
6661;SDS011;3367;48.714;8.994;2024-02-21T04:12:55;4.00;;;1.70;;
6661;SDS011;3367;48.714;8.994;2024-02-21T04:15:22;4.90;;;2.30;;
6661;SDS011;3367;48.714;8.994;2024-02-21T04:17:48;1.43;;;1.33;;
6661;SDS011;3367;48.714;8.994;2024-02-21T04:20:16;3.03;;;1.93;;
6661;SDS011;3367;48.714;8.994;2024-02-21T04:22:44;2.73;;;1.47;;
6661;SDS011;3367;48.714;8.994;2024-02-21T04:25:11;3.87;;;1.90;;
6661;SDS011;3367;48.714;8.994;2024-02-21T04:27:38;1.73;;;1.50;;
6661;SDS011;3367;48.714;8.994;2024-02-21T04:30:06;3.57;;;2.60;;
6661;SDS011;3367;48.714;8.994;2024-02-21T04:32:39;4.17;;;1.60;;
6661;SDS011;3367;48.714;8.994;2024-02-21T04:35:06;9.57;;;1.73;;
6661;SDS011;3367;48.714;8.994;2024-02-21T04:37:36;6.33;;;2.00;;
6661;SDS011;3367;48.714;8.994;2024-02-21T04:40:10;3.43;;;1.30;;
6661;SDS011;3367;48.714;8.994;2024-02-21T04:42:36;4.63;;;2.03;;
6661;SDS011;3367;48.714;8.994;2024-02-21T04:45:03;1.40;;;1.30;;
6661;SDS011;3367;48.714;8.994;2024-02-21T04:47:33;6.10;;;1.60;;
6661;SDS011;3367;48.714;8.994;2024-02-21T04:50:09;4.60;;;1.30;;
6661;SDS011;3367;48.714;8.994;2024-02-21T04:52:42;2.23;;;1.57;;
6661;SDS011;3367;48.714;8.994;2024-02-21T04:55:11;6.27;;;1.30;;
6661;SDS011;3367;48.714;8.994;2024-02-21T04:57:41;1.60;;;1.50;;
6661;SDS011;3367;48.714;8.994;2024-02-21T05:00:16;5.40;;;1.27;;
6661;SDS011;3367;48.714;8.994;2024-02-21T05:02:43;3.77;;;1.30;;
6661;SDS011;3367;48.714;8.994;2024-02-21T05:05:10;1.83;;;1.10;;
6661;SDS011;3367;48.714;8.994;2024-02-21T05:07:36;3.37;;;1.73;;
6661;SDS011;3367;48.714;8.994;2024-02-21T05:10:09;2.30;;;1.50;;
6661;SDS011;3367;48.714;8.994;2024-02-21T05:12:46;3.70;;;0.90;;
6661;SDS011;3367;48.714;8.994;2024-02-21T05:15:15;1.70;;;1.40;;
6661;SDS011;3367;48.714;8.994;2024-02-21T05:17:45;1.90;;;1.80;;
6661;SDS011;3367;48.714;8.994;2024-02-21T05:20:11;1.57;;;1.37;;
6661;SDS011;3367;48.714;8.994;2024-02-21T05:22:41;4.60;;;1.90;;
6661;SDS011;3367;48.714;8.994;2024-02-21T05:25:10;2.27;;;1.97;;
6661;SDS011;3367;48.714;8.994;2024-02-21T05:27:37;3.33;;;1.70;;
6661;SDS011;3367;48.714;8.994;2024-02-21T05:30:06;1.80;;;1.53;;
6661;SDS011;3367;48.714;8.994;2024-02-21T05:32:33;2.70;;;1.20;;
6661;SDS011;3367;48.714;8.994;2024-02-21T05:35:00;7.23;;;1.80;;
6661;SDS011;3367;48.714;8.994;2024-02-21T05:37:30;3.17;;;1.70;;
6661;SDS011;3367;48.714;8.994;2024-02-21T05:39:57;2.70;;;1.40;;
6661;SDS011;3367;48.714;8.994;2024-02-21T05:42:23;4.50;;;1.80;;
6661;SDS011;3367;48.714;8.994;2024-02-21T05:44:50;7.33;;;1.60;;
6661;SDS011;3367;48.714;8.994;2024-02-21T05:47:18;2.90;;;1.50;;
6661;SDS011;3367;48.714;8.994;2024-02-21T05:49:45;1.40;;;1.30;;
6661;SDS011;3367;48.714;8.994;2024-02-21T05:52:15;3.00;;;1.10;;
6661;SDS011;3367;48.714;8.994;2024-02-21T05:54:42;4.90;;;1.97;;
6661;SDS011;3367;48.714;8.994;2024-02-21T05:57:15;1.63;;;1.47;;
6661;SDS011;3367;48.714;8.994;2024-02-21T05:59:43;2.03;;;1.80;;
6661;SDS011;3367;48.714;8.994;2024-02-21T06:02:13;3.43;;;1.50;;
6661;SDS011;3367;48.714;8.994;2024-02-21T06:04:41;2.30;;;1.37;;
6661;SDS011;3367;48.714;8.994;2024-02-21T06:07:12;4.60;;;2.03;;
6661;SDS011;3367;48.714;8.994;2024-02-21T06:09:39;7.30;;;1.43;;
6661;SDS011;3367;48.714;8.994;2024-02-21T06:12:06;5.47;;;1.70;;
6661;SDS011;3367;48.714;8.994;2024-02-21T06:14:33;3.37;;;1.50;;
6661;SDS011;3367;48.714;8.994;2024-02-21T06:17:00;4.50;;;1.93;;
6661;SDS011;3367;48.714;8.994;2024-02-21T06:19:27;3.00;;;1.80;;
6661;SDS011;3367;48.714;8.994;2024-02-21T06:21:55;5.50;;;1.97;;
6661;SDS011;3367;48.714;8.994;2024-02-21T06:24:22;4.13;;;2.10;;
6661;SDS011;3367;48.714;8.994;2024-02-21T06:26:49;3.77;;;1.63;;
6661;SDS011;3367;48.714;8.994;2024-02-21T06:29:16;4.53;;;2.27;;
6661;SDS011;3367;48.714;8.994;2024-02-21T06:31:42;4.23;;;2.00;;
6661;SDS011;3367;48.714;8.994;2024-02-21T06:34:09;3.90;;;1.63;;
6661;SDS011;3367;48.714;8.994;2024-02-21T06:36:36;1.27;;;1.13;;
6661;SDS011;3367;48.714;8.994;2024-02-21T06:39:04;2.70;;;1.77;;
6661;SDS011;3367;48.714;8.994;2024-02-21T06:41:32;2.57;;;1.47;;
6661;SDS011;3367;48.714;8.994;2024-02-21T06:43:59;3.63;;;1.77;;
6661;SDS011;3367;48.714;8.994;2024-02-21T06:46:26;3.07;;;1.97;;
6661;SDS011;3367;48.714;8.994;2024-02-21T06:48:54;2.70;;;1.97;;
6661;SDS011;3367;48.714;8.994;2024-02-21T06:51:22;1.47;;;1.37;;
6661;SDS011;3367;48.714;8.994;2024-02-21T06:53:49;2.03;;;1.50;;
6661;SDS011;3367;48.714;8.994;2024-02-21T06:56:17;5.00;;;1.70;;
6661;SDS011;3367;48.714;8.994;2024-02-21T06:58:44;4.93;;;1.80;;
6661;SDS011;3367;48.714;8.994;2024-02-21T07:01:11;9.53;;;2.20;;
6661;SDS011;3367;48.714;8.994;2024-02-21T07:03:38;6.77;;;2.00;;
6661;SDS011;3367;48.714;8.994;2024-02-21T07:06:05;3.00;;;1.60;;
6661;SDS011;3367;48.714;8.994;2024-02-21T07:08:32;1.40;;;1.30;;
6661;SDS011;3367;48.714;8.994;2024-02-21T07:10:59;2.57;;;1.00;;
6661;SDS011;3367;48.714;8.994;2024-02-21T07:13:27;2.20;;;1.70;;
6661;SDS011;3367;48.714;8.994;2024-02-21T07:15:54;1.27;;;1.17;;
6661;SDS011;3367;48.714;8.994;2024-02-21T07:18:21;1.47;;;1.07;;
6661;SDS011;3367;48.714;8.994;2024-02-21T07:20:47;1.20;;;1.00;;
6661;SDS011;3367;48.714;8.994;2024-02-21T07:23:14;8.03;;;2.10;;
6661;SDS011;3367;48.714;8.994;2024-02-21T07:25:41;2.57;;;1.10;;
6661;SDS011;3367;48.714;8.994;2024-02-21T07:28:08;5.87;;;1.47;;
6661;SDS011;3367;48.714;8.994;2024-02-21T07:30:36;1.80;;;1.30;;
6661;SDS011;3367;48.714;8.994;2024-02-21T07:33:03;2.83;;;1.83;;
6661;SDS011;3367;48.714;8.994;2024-02-21T07:35:32;2.90;;;1.57;;
6661;SDS011;3367;48.714;8.994;2024-02-21T07:37:59;3.87;;;1.90;;
6661;SDS011;3367;48.714;8.994;2024-02-21T07:40:26;2.80;;;1.33;;
6661;SDS011;3367;48.714;8.994;2024-02-21T07:42:52;2.83;;;1.43;;
6661;SDS011;3367;48.714;8.994;2024-02-21T07:45:19;2.67;;;1.43;;
6661;SDS011;3367;48.714;8.994;2024-02-21T07:47:50;4.30;;;1.53;;
6661;SDS011;3367;48.714;8.994;2024-02-21T07:50:17;3.40;;;1.67;;
6661;SDS011;3367;48.714;8.994;2024-02-21T07:52:44;3.80;;;1.67;;
6661;SDS011;3367;48.714;8.994;2024-02-21T07:55:09;3.40;;;1.57;;
6661;SDS011;3367;48.714;8.994;2024-02-21T07:57:36;5.70;;;2.30;;
6661;SDS011;3367;48.714;8.994;2024-02-21T08:00:03;2.00;;;1.40;;
6661;SDS011;3367;48.714;8.994;2024-02-21T08:02:33;1.90;;;1.07;;
6661;SDS011;3367;48.714;8.994;2024-02-21T08:05:01;3.07;;;1.03;;
6661;SDS011;3367;48.714;8.994;2024-02-21T08:07:28;3.47;;;1.43;;
6661;SDS011;3367;48.714;8.994;2024-02-21T08:09:56;1.10;;;1.10;;
6661;SDS011;3367;48.714;8.994;2024-02-21T08:12:23;4.53;;;1.53;;
6661;SDS011;3367;48.714;8.994;2024-02-21T08:14:49;1.47;;;1.30;;
6661;SDS011;3367;48.714;8.994;2024-02-21T08:17:16;1.83;;;1.73;;
6661;SDS011;3367;48.714;8.994;2024-02-21T08:19:43;5.80;;;1.37;;
6661;SDS011;3367;48.714;8.994;2024-02-21T08:22:11;5.47;;;1.63;;
6661;SDS011;3367;48.714;8.994;2024-02-21T08:24:37;1.37;;;1.23;;
6661;SDS011;3367;48.714;8.994;2024-02-21T08:27:05;2.30;;;1.10;;
6661;SDS011;3367;48.714;8.994;2024-02-21T08:29:31;1.47;;;1.37;;
6661;SDS011;3367;48.714;8.994;2024-02-21T08:31:58;3.57;;;1.20;;
6661;SDS011;3367;48.714;8.994;2024-02-21T08:34:25;4.77;;;1.17;;
6661;SDS011;3367;48.714;8.994;2024-02-21T08:36:54;2.93;;;1.23;;
6661;SDS011;3367;48.714;8.994;2024-02-21T08:39:22;4.60;;;1.07;;
6661;SDS011;3367;48.714;8.994;2024-02-21T08:41:49;2.13;;;1.70;;
6661;SDS011;3367;48.714;8.994;2024-02-21T08:44:16;3.60;;;1.27;;
6661;SDS011;3367;48.714;8.994;2024-02-21T08:46:43;2.80;;;1.33;;
6661;SDS011;3367;48.714;8.994;2024-02-21T08:49:12;2.27;;;1.33;;
6661;SDS011;3367;48.714;8.994;2024-02-21T08:51:39;4.40;;;1.50;;
6661;SDS011;3367;48.714;8.994;2024-02-21T08:54:06;4.97;;;1.63;;
6661;SDS011;3367;48.714;8.994;2024-02-21T08:56:34;3.23;;;1.67;;
6661;SDS011;3367;48.714;8.994;2024-02-21T08:59:01;2.80;;;1.10;;
6661;SDS011;3367;48.714;8.994;2024-02-21T09:01:28;4.50;;;1.30;;
6661;SDS011;3367;48.714;8.994;2024-02-21T09:03:55;1.80;;;1.47;;
6661;SDS011;3367;48.714;8.994;2024-02-21T09:06:22;8.27;;;2.33;;
6661;SDS011;3367;48.714;8.994;2024-02-21T09:08:49;6.23;;;1.30;;
6661;SDS011;3367;48.714;8.994;2024-02-21T09:11:15;2.13;;;1.40;;
6661;SDS011;3367;48.714;8.994;2024-02-21T09:13:44;2.70;;;1.80;;
6661;SDS011;3367;48.714;8.994;2024-02-21T09:16:10;4.10;;;1.63;;
6661;SDS011;3367;48.714;8.994;2024-02-21T09:18:37;3.87;;;1.07;;
6661;SDS011;3367;48.714;8.994;2024-02-21T09:21:04;1.93;;;1.50;;
6661;SDS011;3367;48.714;8.994;2024-02-21T09:23:31;3.97;;;1.93;;
6661;SDS011;3367;48.714;8.994;2024-02-21T09:25:58;8.53;;;1.30;;
6661;SDS011;3367;48.714;8.994;2024-02-21T09:28:25;1.73;;;1.03;;
6661;SDS011;3367;48.714;8.994;2024-02-21T09:30:53;1.20;;;1.03;;
6661;SDS011;3367;48.714;8.994;2024-02-21T09:33:20;1.23;;;0.63;;
6661;SDS011;3367;48.714;8.994;2024-02-21T09:35:47;2.50;;;1.40;;
6661;SDS011;3367;48.714;8.994;2024-02-21T09:38:14;2.37;;;1.40;;
6661;SDS011;3367;48.714;8.994;2024-02-21T09:40:41;2.30;;;0.87;;
6661;SDS011;3367;48.714;8.994;2024-02-21T09:43:08;3.10;;;1.13;;
6661;SDS011;3367;48.714;8.994;2024-02-21T09:45:35;1.80;;;1.10;;
6661;SDS011;3367;48.714;8.994;2024-02-21T09:48:14;1.60;;;1.07;;
6661;SDS011;3367;48.714;8.994;2024-02-21T09:50:56;1.23;;;0.90;;
6661;SDS011;3367;48.714;8.994;2024-02-21T09:53:25;2.60;;;1.27;;
6661;SDS011;3367;48.714;8.994;2024-02-21T09:55:52;2.60;;;1.30;;
6661;SDS011;3367;48.714;8.994;2024-02-21T09:58:19;4.33;;;1.40;;
6661;SDS011;3367;48.714;8.994;2024-02-21T10:00:47;3.53;;;1.60;;
6661;SDS011;3367;48.714;8.994;2024-02-21T10:03:15;2.50;;;1.27;;
6661;SDS011;3367;48.714;8.994;2024-02-21T10:05:47;1.33;;;1.20;;
6661;SDS011;3367;48.714;8.994;2024-02-21T10:08:15;2.00;;;1.00;;
6661;SDS011;3367;48.714;8.994;2024-02-21T10:10:42;2.47;;;1.33;;
6661;SDS011;3367;48.714;8.994;2024-02-21T10:13:09;4.70;;;1.40;;
6661;SDS011;3367;48.714;8.994;2024-02-21T10:15:36;15.03;;;1.80;;
6661;SDS011;3367;48.714;8.994;2024-02-21T10:18:03;1.20;;;1.10;;
6661;SDS011;3367;48.714;8.994;2024-02-21T10:20:33;4.03;;;1.53;;
6661;SDS011;3367;48.714;8.994;2024-02-21T10:23:00;2.83;;;1.50;;
6661;SDS011;3367;48.714;8.994;2024-02-21T10:25:28;3.80;;;1.30;;
6661;SDS011;3367;48.714;8.994;2024-02-21T10:27:54;3.80;;;1.30;;
6661;SDS011;3367;48.714;8.994;2024-02-21T10:30:22;2.37;;;1.20;;
6661;SDS011;3367;48.714;8.994;2024-02-21T10:32:49;1.53;;;1.10;;
6661;SDS011;3367;48.714;8.994;2024-02-21T10:35:25;1.97;;;1.77;;
6661;SDS011;3367;48.714;8.994;2024-02-21T10:37:54;2.60;;;1.23;;
6661;SDS011;3367;48.714;8.994;2024-02-21T10:40:23;2.53;;;1.67;;
6661;SDS011;3367;48.714;8.994;2024-02-21T10:42:50;2.07;;;1.60;;
6661;SDS011;3367;48.714;8.994;2024-02-21T10:45:23;3.23;;;1.20;;
6661;SDS011;3367;48.714;8.994;2024-02-21T10:47:58;2.40;;;0.97;;
6661;SDS011;3367;48.714;8.994;2024-02-21T10:50:36;1.13;;;1.03;;
6661;SDS011;3367;48.714;8.994;2024-02-21T10:53:17;2.20;;;1.03;;
6661;SDS011;3367;48.714;8.994;2024-02-21T10:55:50;1.77;;;1.17;;
6661;SDS011;3367;48.714;8.994;2024-02-21T10:58:27;3.37;;;0.93;;
6661;SDS011;3367;48.714;8.994;2024-02-21T11:00:56;3.90;;;1.10;;
6661;SDS011;3367;48.714;8.994;2024-02-21T11:03:23;6.40;;;1.60;;
6661;SDS011;3367;48.714;8.994;2024-02-21T11:05:50;1.80;;;0.83;;
6661;SDS011;3367;48.714;8.994;2024-02-21T11:08:19;1.73;;;1.10;;
6661;SDS011;3367;48.714;8.994;2024-02-21T11:10:46;4.70;;;1.50;;
6661;SDS011;3367;48.714;8.994;2024-02-21T11:13:13;2.40;;;0.90;;
6661;SDS011;3367;48.714;8.994;2024-02-21T11:15:40;1.93;;;1.10;;
6661;SDS011;3367;48.714;8.994;2024-02-21T11:18:07;4.20;;;1.07;;
6661;SDS011;3367;48.714;8.994;2024-02-21T11:20:34;1.37;;;1.10;;
6661;SDS011;3367;48.714;8.994;2024-02-21T11:23:02;7.70;;;1.73;;
6661;SDS011;3367;48.714;8.994;2024-02-21T11:25:30;2.47;;;1.23;;
6661;SDS011;3367;48.714;8.994;2024-02-21T11:27:59;6.00;;;1.07;;
6661;SDS011;3367;48.714;8.994;2024-02-21T11:30:27;1.07;;;1.00;;
6661;SDS011;3367;48.714;8.994;2024-02-21T11:32:59;1.17;;;0.70;;
6661;SDS011;3367;48.714;8.994;2024-02-21T11:35:30;4.30;;;1.13;;
6661;SDS011;3367;48.714;8.994;2024-02-21T11:38:07;4.67;;;1.00;;
6661;SDS011;3367;48.714;8.994;2024-02-21T11:40:37;1.93;;;1.13;;
6661;SDS011;3367;48.714;8.994;2024-02-21T11:43:05;2.50;;;1.43;;
6661;SDS011;3367;48.714;8.994;2024-02-21T11:45:32;6.43;;;1.03;;
6661;SDS011;3367;48.714;8.994;2024-02-21T11:47:59;4.90;;;0.67;;
6661;SDS011;3367;48.714;8.994;2024-02-21T11:50:28;2.03;;;1.00;;
6661;SDS011;3367;48.714;8.994;2024-02-21T11:52:57;1.50;;;0.83;;
6661;SDS011;3367;48.714;8.994;2024-02-21T11:55:24;2.50;;;1.37;;
6661;SDS011;3367;48.714;8.994;2024-02-21T11:57:52;1.77;;;1.00;;
6661;SDS011;3367;48.714;8.994;2024-02-21T12:00:19;4.30;;;1.63;;
6661;SDS011;3367;48.714;8.994;2024-02-21T12:02:47;3.73;;;1.27;;
6661;SDS011;3367;48.714;8.994;2024-02-21T12:05:15;1.67;;;1.13;;
6661;SDS011;3367;48.714;8.994;2024-02-21T12:07:42;2.13;;;0.80;;
6661;SDS011;3367;48.714;8.994;2024-02-21T12:10:09;2.00;;;0.80;;
6661;SDS011;3367;48.714;8.994;2024-02-21T12:12:37;1.77;;;1.67;;
6661;SDS011;3367;48.714;8.994;2024-02-21T12:15:06;2.70;;;1.10;;
6661;SDS011;3367;48.714;8.994;2024-02-21T12:17:33;1.57;;;0.90;;
6661;SDS011;3367;48.714;8.994;2024-02-21T12:20:01;1.53;;;1.33;;
6661;SDS011;3367;48.714;8.994;2024-02-21T12:22:30;1.27;;;0.80;;
6661;SDS011;3367;48.714;8.994;2024-02-21T12:24:58;2.20;;;1.20;;
6661;SDS011;3367;48.714;8.994;2024-02-21T12:27:25;1.93;;;1.00;;
6661;SDS011;3367;48.714;8.994;2024-02-21T12:29:52;6.43;;;1.23;;
6661;SDS011;3367;48.714;8.994;2024-02-21T12:32:20;3.93;;;1.13;;
6661;SDS011;3367;48.714;8.994;2024-02-21T12:34:47;2.73;;;0.90;;
6661;SDS011;3367;48.714;8.994;2024-02-21T12:37:14;1.10;;;0.80;;
6661;SDS011;3367;48.714;8.994;2024-02-21T12:39:41;1.97;;;0.90;;
6661;SDS011;3367;48.714;8.994;2024-02-21T12:42:09;5.63;;;1.03;;
6661;SDS011;3367;48.714;8.994;2024-02-21T12:44:37;0.80;;;0.67;;
6661;SDS011;3367;48.714;8.994;2024-02-21T12:47:04;2.27;;;1.07;;
6661;SDS011;3367;48.714;8.994;2024-02-21T12:49:32;1.60;;;0.87;;
6661;SDS011;3367;48.714;8.994;2024-02-21T12:51:59;4.43;;;0.70;;
6661;SDS011;3367;48.714;8.994;2024-02-21T12:54:26;3.23;;;1.10;;
6661;SDS011;3367;48.714;8.994;2024-02-21T12:56:55;0.77;;;0.60;;
6661;SDS011;3367;48.714;8.994;2024-02-21T12:59:22;2.10;;;0.70;;
6661;SDS011;3367;48.714;8.994;2024-02-21T13:01:49;1.37;;;0.90;;
6661;SDS011;3367;48.714;8.994;2024-02-21T13:04:16;5.47;;;1.00;;
6661;SDS011;3367;48.714;8.994;2024-02-21T13:06:44;2.40;;;1.30;;
6661;SDS011;3367;48.714;8.994;2024-02-21T13:09:11;0.90;;;0.60;;
6661;SDS011;3367;48.714;8.994;2024-02-21T13:11:38;1.53;;;0.80;;
6661;SDS011;3367;48.714;8.994;2024-02-21T13:14:06;2.30;;;0.97;;
6661;SDS011;3367;48.714;8.994;2024-02-21T13:16:33;1.37;;;0.87;;
6661;SDS011;3367;48.714;8.994;2024-02-21T13:19:04;3.23;;;1.20;;
6661;SDS011;3367;48.714;8.994;2024-02-21T13:21:31;1.90;;;0.40;;
6661;SDS011;3367;48.714;8.994;2024-02-21T13:23:59;0.80;;;0.60;;
6661;SDS011;3367;48.714;8.994;2024-02-21T13:26:26;2.20;;;0.80;;
6661;SDS011;3367;48.714;8.994;2024-02-21T13:28:53;5.20;;;1.00;;
6661;SDS011;3367;48.714;8.994;2024-02-21T13:31:19;3.20;;;0.60;;
6661;SDS011;3367;48.714;8.994;2024-02-21T13:33:46;2.57;;;0.73;;
6661;SDS011;3367;48.714;8.994;2024-02-21T13:36:13;3.27;;;0.67;;
6661;SDS011;3367;48.714;8.994;2024-02-21T13:38:40;1.30;;;0.90;;
6661;SDS011;3367;48.714;8.994;2024-02-21T13:41:08;0.67;;;0.60;;
6661;SDS011;3367;48.714;8.994;2024-02-21T13:43:35;0.80;;;0.60;;
6661;SDS011;3367;48.714;8.994;2024-02-21T13:46:01;1.50;;;0.90;;
6661;SDS011;3367;48.714;8.994;2024-02-21T13:48:30;1.07;;;0.70;;
6661;SDS011;3367;48.714;8.994;2024-02-21T13:50:58;1.93;;;0.70;;
6661;SDS011;3367;48.714;8.994;2024-02-21T13:53:27;0.70;;;0.60;;
6661;SDS011;3367;48.714;8.994;2024-02-21T13:55:54;1.07;;;0.50;;
6661;SDS011;3367;48.714;8.994;2024-02-21T13:58:24;1.40;;;0.67;;
6661;SDS011;3367;48.714;8.994;2024-02-21T14:00:52;0.70;;;0.50;;
6661;SDS011;3367;48.714;8.994;2024-02-21T14:03:19;1.07;;;0.80;;
6661;SDS011;3367;48.714;8.994;2024-02-21T14:05:46;1.70;;;0.90;;
6661;SDS011;3367;48.714;8.994;2024-02-21T14:08:13;1.37;;;0.80;;
6661;SDS011;3367;48.714;8.994;2024-02-21T14:10:40;2.10;;;0.50;;
6661;SDS011;3367;48.714;8.994;2024-02-21T14:13:06;0.73;;;0.60;;
6661;SDS011;3367;48.714;8.994;2024-02-21T14:15:34;1.53;;;0.70;;
6661;SDS011;3367;48.714;8.994;2024-02-21T14:18:04;1.07;;;0.80;;
6661;SDS011;3367;48.714;8.994;2024-02-21T14:20:34;0.90;;;0.60;;
6661;SDS011;3367;48.714;8.994;2024-02-21T14:23:01;0.90;;;0.50;;
6661;SDS011;3367;48.714;8.994;2024-02-21T14:25:29;0.80;;;0.60;;
6661;SDS011;3367;48.714;8.994;2024-02-21T14:27:56;0.73;;;0.50;;
6661;SDS011;3367;48.714;8.994;2024-02-21T14:30:22;0.70;;;0.43;;
6661;SDS011;3367;48.714;8.994;2024-02-21T14:32:51;2.53;;;0.80;;
6661;SDS011;3367;48.714;8.994;2024-02-21T14:35:18;1.43;;;0.50;;
6661;SDS011;3367;48.714;8.994;2024-02-21T14:37:45;2.47;;;0.73;;
6661;SDS011;3367;48.714;8.994;2024-02-21T14:40:14;2.97;;;0.63;;
6661;SDS011;3367;48.714;8.994;2024-02-21T14:42:40;0.80;;;0.50;;
6661;SDS011;3367;48.714;8.994;2024-02-21T14:45:08;0.70;;;0.60;;
6661;SDS011;3367;48.714;8.994;2024-02-21T14:47:35;0.77;;;0.60;;
6661;SDS011;3367;48.714;8.994;2024-02-21T14:50:03;1.00;;;0.70;;
6661;SDS011;3367;48.714;8.994;2024-02-21T14:52:32;1.73;;;0.70;;
6661;SDS011;3367;48.714;8.994;2024-02-21T14:54:59;0.70;;;0.50;;
6661;SDS011;3367;48.714;8.994;2024-02-21T14:57:27;2.20;;;0.60;;
6661;SDS011;3367;48.714;8.994;2024-02-21T14:59:54;2.43;;;0.83;;
6661;SDS011;3367;48.714;8.994;2024-02-21T15:02:23;3.03;;;1.23;;
6661;SDS011;3367;48.714;8.994;2024-02-21T15:04:51;1.73;;;0.83;;
6661;SDS011;3367;48.714;8.994;2024-02-21T15:07:20;0.97;;;0.67;;
6661;SDS011;3367;48.714;8.994;2024-02-21T15:09:49;0.80;;;0.70;;
6661;SDS011;3367;48.714;8.994;2024-02-21T15:12:16;0.60;;;0.60;;
6661;SDS011;3367;48.714;8.994;2024-02-21T15:14:42;1.87;;;1.10;;
6661;SDS011;3367;48.714;8.994;2024-02-21T15:17:10;1.27;;;0.70;;
6661;SDS011;3367;48.714;8.994;2024-02-21T15:19:37;2.60;;;0.90;;